Time,TemperatureF,DewpointF,PressureIn,WindDirection,WindDirectionDegrees,WindSpeedMPH,WindSpeedGustMPH,Humidity,HourlyPrecipIn,Conditions,Clouds,dailyrainin,SoftwareType,DateUTC
2013-05-18 00:05:00,60.1,50.3,30.11,NE,34,2.0,5.0,70,0.00,,,0.00,Wunderground v.1.15,2013-05-18 04:05:00,
2013-05-18 00:10:00,60.2,50.4,30.11,NE,54,2.0,5.0,70,0.00,,,0.00,Wunderground v.1.15,2013-05-18 04:10:00,
2013-05-18 00:20:00,60.4,49.4,30.11,NE,44,2.0,5.0,67,0.00,,,0.00,Wunderground v.1.15,2013-05-18 04:20:00,
2013-05-18 00:25:00,60.5,49.9,30.11,NE,44,2.0,2.0,68,0.00,,,0.00,Wunderground v.1.15,2013-05-18 04:25:00,
2013-05-18 00:30:00,60.0,50.2,30.11,NE,40,2.0,5.0,70,0.00,,,0.00,Wunderground v.1.15,2013-05-18 04:30:00,
2013-05-18 00:35:00,59.5,50.1,30.11,NNE,25,2.0,5.0,71,0.00,,,0.00,Wunderground v.1.15,2013-05-18 04:35:00,
2013-05-18 00:40:00,59.7,49.9,30.11,NE,51,3.0,5.0,70,0.00,,,0.00,Wunderground v.1.15,2013-05-18 04:40:00,
2013-05-18 00:45:00,59.7,49.5,30.11,NE,34,2.0,2.0,69,0.00,,,0.00,Wunderground v.1.15,2013-05-18 04:45:00,
2013-05-18 00:50:00,59.4,49.6,30.11,NE,34,2.0,3.0,70,0.00,,,0.00,Wunderground v.1.15,2013-05-18 04:50:00,
2013-05-18 00:55:00,59.1,49.7,30.11,NNE,28,2.0,5.0,71,0.00,,,0.00,Wunderground v.1.15,2013-05-18 04:55:00,
2013-05-18 01:00:00,58.7,49.3,30.12,NNE,25,2.0,2.0,71,0.00,,,0.00,Wunderground v.1.15,2013-05-18 05:00:00,
2013-05-18 01:10:00,58.1,49.9,30.12,NNE,25,1.0,5.0,74,0.00,,,0.00,Wunderground v.1.15,2013-05-18 05:10:00,
2013-05-18 01:15:00,57.5,49.6,30.12,NNE,25,1.0,5.0,75,0.00,,,0.00,Wunderground v.1.15,2013-05-18 05:15:00,
2013-05-18 01:20:00,57.0,49.5,30.11,NNE,25,1.0,5.0,76,0.00,,,0.00,Wunderground v.1.15,2013-05-18 05:20:00,
2013-05-18 01:30:00,56.8,49.0,30.11,NE,34,3.0,5.0,75,0.00,,,0.00,Wunderground v.1.15,2013-05-18 05:30:00,
2013-05-18 01:35:00,57.6,49.0,30.11,NNE,26,3.0,3.0,73,0.00,,,0.00,Wunderground v.1.15,2013-05-18 05:35:00,
2013-05-18 01:45:00,57.6,49.0,30.11,NE,42,2.0,5.0,73,0.00,,,0.00,Wunderground v.1.15,2013-05-18 05:45:00,
2013-05-18 01:50:00,57.1,49.6,30.11,NE,42,2.0,5.0,76,0.00,,,0.00,Wunderground v.1.15,2013-05-18 05:50:00,
2013-05-18 01:55:00,56.5,49.4,30.11,NE,42,2.0,2.0,77,0.00,,,0.00,Wunderground v.1.15,2013-05-18 05:55:00,
2013-05-18 02:05:00,55.7,49.3,30.10,NE,42,1.0,5.0,79,0.00,,,0.00,Wunderground v.1.15,2013-05-18 06:05:00,
2013-05-18 02:10:00,55.5,49.1,30.10,NE,40,1.0,5.0,79,0.00,,,0.00,Wunderground v.1.15,2013-05-18 06:10:00,
2013-05-18 02:15:00,55.4,48.7,30.10,NE,40,0.0,5.0,78,0.00,,,0.00,Wunderground v.1.15,2013-05-18 06:15:00,
2013-05-18 02:20:00,55.2,48.5,30.10,NE,42,0.0,5.0,78,0.00,,,0.00,Wunderground v.1.15,2013-05-18 06:20:00,
2013-05-18 02:30:00,54.6,48.6,30.10,NE,41,0.0,5.0,80,0.00,,,0.00,Wunderground v.1.15,2013-05-18 06:30:00,
2013-05-18 02:35:00,54.2,48.2,30.10,NE,42,0.0,5.0,80,0.00,,,0.00,Wunderground v.1.15,2013-05-18 06:35:00,
2013-05-18 02:40:00,53.9,48.2,30.10,NE,40,0.0,5.0,81,0.00,,,0.00,Wunderground v.1.15,2013-05-18 06:40:00,
2013-05-18 02:45:00,53.8,48.1,30.10,NE,42,0.0,5.0,81,0.00,,,0.00,Wunderground v.1.15,2013-05-18 06:45:00,
2013-05-18 02:50:00,53.7,48.0,30.10,NE,40,0.0,5.0,81,0.00,,,0.00,Wunderground v.1.15,2013-05-18 06:50:00,
2013-05-18 02:55:00,53.5,48.1,30.10,NE,41,0.0,5.0,82,0.00,,,0.00,Wunderground v.1.15,2013-05-18 06:55:00,
2013-05-18 03:01:00,53.0,48.0,30.09,NE,42,1.0,1.0,83,0.00,,,0.00,Wunderground v.1.15,2013-05-18 07:01:00,
2013-05-18 03:10:00,52.6,47.6,30.10,NE,40,0.0,5.0,83,0.00,,,0.00,Wunderground v.1.15,2013-05-18 07:10:00,
2013-05-18 03:15:00,52.6,47.6,30.10,NE,40,0.0,5.0,83,0.00,,,0.00,Wunderground v.1.15,2013-05-18 07:15:00,
2013-05-18 03:20:00,52.4,47.4,30.10,NE,42,0.0,5.0,83,0.00,,,0.00,Wunderground v.1.15,2013-05-18 07:20:00,
2013-05-18 03:25:00,52.1,47.1,30.10,NE,41,0.0,5.0,83,0.00,,,0.00,Wunderground v.1.15,2013-05-18 07:25:00,
2013-05-18 03:30:00,51.9,47.2,30.10,NE,42,0.0,5.0,84,0.00,,,0.00,Wunderground v.1.15,2013-05-18 07:30:00,
2013-05-18 03:40:00,51.4,47.0,30.10,NE,42,0.0,5.0,85,0.00,,,0.00,Wunderground v.1.15,2013-05-18 07:40:00,
2013-05-18 03:50:00,51.2,46.8,30.09,NE,41,0.0,5.0,85,0.00,,,0.00,Wunderground v.1.15,2013-05-18 07:50:00,
2013-05-18 03:55:00,51.1,47.1,30.09,NE,40,0.0,5.0,86,0.00,,,0.00,Wunderground v.1.15,2013-05-18 07:55:00,
2013-05-18 04:05:00,51.0,47.0,30.09,NE,42,0.0,5.0,86,0.00,,,0.00,Wunderground v.1.15,2013-05-18 08:05:00,
2013-05-18 04:10:00,51.0,47.0,30.09,NE,42,0.0,5.0,86,0.00,,,0.00,Wunderground v.1.15,2013-05-18 08:10:00,
2013-05-18 04:15:00,50.8,46.8,30.09,NE,42,0.0,5.0,86,0.00,,,0.00,Wunderground v.1.15,2013-05-18 08:15:00,
2013-05-18 04:20:00,50.7,46.7,30.09,NE,42,0.0,5.0,86,0.00,,,0.00,Wunderground v.1.15,2013-05-18 08:20:00,
2013-05-18 04:30:00,50.3,46.6,30.09,NE,42,0.0,5.0,87,0.00,,,0.00,Wunderground v.1.15,2013-05-18 08:30:00,
2013-05-18 04:35:00,50.2,46.5,30.10,NE,42,0.0,5.0,87,0.00,,,0.00,Wunderground v.1.15,2013-05-18 08:35:00,
2013-05-18 04:40:00,50.1,46.7,30.10,NE,41,0.0,5.0,88,0.00,,,0.00,Wunderground v.1.15,2013-05-18 08:40:00,
2013-05-18 04:45:00,50.1,46.7,30.10,NE,42,0.0,5.0,88,0.00,,,0.00,Wunderground v.1.15,2013-05-18 08:45:00,
2013-05-18 04:50:00,49.9,46.8,30.10,NE,42,0.0,5.0,89,0.00,,,0.00,Wunderground v.1.15,2013-05-18 08:50:00,
2013-05-18 04:55:00,49.8,46.7,30.10,NE,42,0.0,5.0,89,0.00,,,0.00,Wunderground v.1.15,2013-05-18 08:55:00,
2013-05-18 05:05:00,49.9,46.8,30.10,NE,41,0.0,5.0,89,0.00,,,0.00,Wunderground v.1.15,2013-05-18 09:05:00,
2013-05-18 05:15:00,49.5,46.4,30.10,NE,42,0.0,5.0,89,0.00,,,0.00,Wunderground v.1.15,2013-05-18 09:15:00,
2013-05-18 05:20:00,49.5,46.7,30.10,NE,40,0.0,5.0,90,0.00,,,0.00,Wunderground v.1.15,2013-05-18 09:20:00,
2013-05-18 05:25:00,49.5,46.7,30.10,NE,42,0.0,5.0,90,0.00,,,0.00,Wunderground v.1.15,2013-05-18 09:25:00,
2013-05-18 05:30:00,49.4,46.6,30.10,NE,40,0.0,5.0,90,0.00,,,0.00,Wunderground v.1.15,2013-05-18 09:30:00,
2013-05-18 05:35:00,49.5,46.7,30.10,NE,42,0.0,5.0,90,0.00,,,0.00,Wunderground v.1.15,2013-05-18 09:35:00,
2013-05-18 05:40:00,49.6,46.8,30.10,NE,42,0.0,5.0,90,0.00,,,0.00,Wunderground v.1.15,2013-05-18 09:40:00,
2013-05-18 05:50:00,49.3,46.5,30.11,NE,42,0.0,5.0,90,0.00,,,0.00,Wunderground v.1.15,2013-05-18 09:50:00,
2013-05-18 05:55:00,49.2,46.4,30.11,NE,42,0.0,5.0,90,0.00,,,0.00,Wunderground v.1.15,2013-05-18 09:55:00,
2013-05-18 06:05:00,49.2,46.7,30.11,NE,42,0.0,5.0,91,0.00,,,0.00,Wunderground v.1.15,2013-05-18 10:05:00,
2013-05-18 06:10:00,49.1,46.6,30.11,NE,42,0.0,5.0,91,0.00,,,0.00,Wunderground v.1.15,2013-05-18 10:10:00,
2013-05-18 06:15:00,49.1,46.6,30.11,NE,42,0.0,5.0,91,0.00,,,0.00,Wunderground v.1.15,2013-05-18 10:15:00,
2013-05-18 06:20:00,49.1,46.6,30.11,NE,41,0.0,5.0,91,0.00,,,0.00,Wunderground v.1.15,2013-05-18 10:20:00,
2013-05-18 06:25:00,49.2,47.0,30.11,NE,42,0.0,5.0,92,0.00,,,0.00,Wunderground v.1.15,2013-05-18 10:25:00,
2013-05-18 06:35:00,49.6,47.4,30.11,NE,42,0.0,5.0,92,0.00,,,0.00,Wunderground v.1.15,2013-05-18 10:35:00,
2013-05-18 06:40:00,49.9,47.7,30.11,NE,42,0.0,5.0,92,0.00,,,0.00,Wunderground v.1.15,2013-05-18 10:40:00,
2013-05-18 06:45:00,50.2,48.0,30.11,NE,42,0.0,5.0,92,0.00,,,0.00,Wunderground v.1.15,2013-05-18 10:45:00,
2013-05-18 06:50:00,50.4,47.9,30.11,NE,42,0.0,5.0,91,0.00,,,0.00,Wunderground v.1.15,2013-05-18 10:50:00,
2013-05-18 06:55:00,50.7,48.2,30.11,NE,40,0.0,5.0,91,0.00,,,0.00,Wunderground v.1.15,2013-05-18 10:55:00,
2013-05-18 07:05:00,51.5,48.7,30.12,NE,40,0.0,5.0,90,0.00,,,0.00,Wunderground v.1.15,2013-05-18 11:05:00,
2013-05-18 07:15:00,52.4,49.3,30.12,NE,42,0.0,5.0,89,0.00,,,0.00,Wunderground v.1.15,2013-05-18 11:15:00,
2013-05-18 07:20:00,53.2,49.4,30.13,NNW,342,0.0,5.0,87,0.00,,,0.00,Wunderground v.1.15,2013-05-18 11:20:00,
2013-05-18 07:25:00,54.2,50.1,30.13,NNW,342,0.0,5.0,86,0.00,,,0.00,Wunderground v.1.15,2013-05-18 11:25:00,
2013-05-18 07:30:00,55.2,49.8,30.13,NNW,342,0.0,5.0,82,0.00,,,0.00,Wunderground v.1.15,2013-05-18 11:30:00,
2013-05-18 07:35:00,56.1,50.0,30.13,NNW,342,0.0,5.0,80,0.00,,,0.00,Wunderground v.1.15,2013-05-18 11:35:00,
2013-05-18 07:40:00,56.7,49.9,30.13,North,8,0.0,5.0,78,0.00,,,0.00,Wunderground v.1.15,2013-05-18 11:40:00,
2013-05-18 07:50:00,57.6,50.1,30.13,NNE,12,1.0,5.0,76,0.00,,,0.00,Wunderground v.1.15,2013-05-18 11:50:00,
2013-05-18 08:05:00,58.5,50.6,30.13,ENE,67,0.0,5.0,75,0.00,,,0.00,Wunderground v.1.15,2013-05-18 12:05:00,
2013-05-18 08:10:00,58.7,50.8,30.13,NNE,22,1.0,5.0,75,0.00,,,0.00,Wunderground v.1.15,2013-05-18 12:10:00,
2013-05-18 08:15:00,58.9,51.0,30.13,NNE,22,1.0,5.0,75,0.00,,,0.00,Wunderground v.1.15,2013-05-18 12:15:00,
2013-05-18 08:20:00,59.0,51.1,30.13,NNE,22,1.0,5.0,75,0.00,,,0.00,Wunderground v.1.15,2013-05-18 12:20:00,
2013-05-18 08:25:00,59.0,51.1,30.13,NNE,23,2.0,5.0,75,0.00,,,0.00,Wunderground v.1.15,2013-05-18 12:25:00,
2013-05-18 08:30:00,59.2,51.3,30.13,NNW,338,2.0,5.0,75,0.00,,,0.00,Wunderground v.1.15,2013-05-18 12:30:00,
2013-05-18 08:40:00,59.7,52.5,30.13,NNE,32,1.0,5.0,77,0.00,,,0.00,Wunderground v.1.15,2013-05-18 12:40:00,
2013-05-18 08:45:00,60.0,52.4,30.14,North,5,1.0,5.0,76,0.00,,,0.00,Wunderground v.1.15,2013-05-18 12:45:00,
2013-05-18 08:50:00,60.3,52.7,30.14,North,5,1.0,5.0,76,0.00,,,0.00,Wunderground v.1.15,2013-05-18 12:50:00,
2013-05-18 08:55:00,60.7,53.1,30.14,North,5,1.0,1.0,76,0.00,,,0.00,Wunderground v.1.15,2013-05-18 12:55:00,
2013-05-18 09:05:00,61.7,54.1,30.15,NNE,16,0.0,5.0,76,0.00,,,0.00,Wunderground v.1.15,2013-05-18 13:05:00,
2013-05-18 09:10:00,62.7,54.7,30.15,ENE,65,0.0,5.0,75,0.00,,,0.00,Wunderground v.1.15,2013-05-18 13:10:00,
2013-05-18 09:20:00,63.0,54.2,30.14,NNE,25,1.0,5.0,73,0.00,,,0.00,Wunderground v.1.15,2013-05-18 13:20:00,
2013-05-18 09:25:00,63.3,54.9,30.14,ENE,63,1.0,1.0,74,0.00,,,0.00,Wunderground v.1.15,2013-05-18 13:25:00,
2013-05-18 09:30:00,63.9,55.4,30.14,ENE,63,0.0,5.0,74,0.00,,,0.00,Wunderground v.1.15,2013-05-18 13:30:00,
2013-05-18 09:35:00,64.8,56.3,30.13,ENE,63,0.0,5.0,74,0.00,,,0.00,Wunderground v.1.15,2013-05-18 13:35:00,
2013-05-18 09:40:00,65.7,56.4,30.13,WSW,243,0.0,5.0,72,0.00,,,0.00,Wunderground v.1.15,2013-05-18 13:40:00,
2013-05-18 09:45:00,65.8,56.1,30.13,SW,228,1.0,5.0,71,0.00,,,0.00,Wunderground v.1.15,2013-05-18 13:45:00,
2013-05-18 09:50:00,65.9,56.2,30.14,WSW,255,1.0,5.0,71,0.00,,,0.00,Wunderground v.1.15,2013-05-18 13:50:00,
2013-05-18 10:05:00,66.9,57.6,30.13,SSW,194,1.0,1.0,72,0.00,,,0.00,Wunderground v.1.15,2013-05-18 14:05:00,
2013-05-18 10:10:00,67.2,57.1,30.13,South,177,1.0,5.0,70,0.00,,,0.00,Wunderground v.1.15,2013-05-18 14:10:00,
2013-05-18 10:15:00,67.5,57.8,30.12,ESE,106,1.0,1.0,71,0.00,,,0.00,Wunderground v.1.15,2013-05-18 14:15:00,
2013-05-18 10:20:00,68.0,58.6,30.12,SE,138,1.0,5.0,72,0.00,,,0.00,Wunderground v.1.15,2013-05-18 14:20:00,
2013-05-18 10:25:00,68.1,57.9,30.12,NE,38,1.0,5.0,70,0.00,,,0.00,Wunderground v.1.15,2013-05-18 14:25:00,
2013-05-18 10:30:00,68.2,58.0,30.12,ESE,103,1.0,5.0,70,0.00,,,0.00,Wunderground v.1.15,2013-05-18 14:30:00,
2013-05-18 10:40:00,68.4,58.2,30.12,NE,44,1.0,5.0,70,0.00,,,0.00,Wunderground v.1.15,2013-05-18 14:40:00,
2013-05-18 10:50:00,69.2,59.4,30.13,ESE,104,1.0,5.0,71,0.00,,,0.00,Wunderground v.1.15,2013-05-18 14:50:00,
2013-05-18 10:55:00,70.0,60.2,30.12,ESE,110,0.0,5.0,71,0.00,,,0.00,Wunderground v.1.15,2013-05-18 14:55:00,
2013-05-18 11:05:00,70.5,60.6,30.12,NNE,16,1.0,1.0,71,0.00,,,0.00,Wunderground v.1.15,2013-05-18 15:05:00,
2013-05-18 11:10:00,70.4,59.7,30.12,NE,48,2.0,2.0,69,0.00,,,0.00,Wunderground v.1.15,2013-05-18 15:10:00,
2013-05-18 11:15:00,70.3,60.1,30.12,NE,37,2.0,2.0,70,0.00,,,0.00,Wunderground v.1.15,2013-05-18 15:15:00,
2013-05-18 11:20:00,71.0,60.7,30.12,NE,38,1.0,5.0,70,0.00,,,0.00,Wunderground v.1.15,2013-05-18 15:20:00,
2013-05-18 11:30:00,71.9,61.6,30.12,SE,141,1.0,5.0,70,0.00,,,0.00,Wunderground v.1.15,2013-05-18 15:30:00,
2013-05-18 11:35:00,72.4,61.7,30.12,ESE,103,1.0,1.0,69,0.00,,,0.00,Wunderground v.1.15,2013-05-18 15:35:00,
2013-05-18 11:40:00,73.1,61.1,30.12,NE,49,1.0,2.0,66,0.00,,,0.00,Wunderground v.1.15,2013-05-18 15:40:00,
2013-05-18 11:45:00,73.1,61.5,30.11,NE,36,2.0,5.0,67,0.00,,,0.00,Wunderground v.1.15,2013-05-18 15:45:00,
2013-05-18 11:50:00,73.6,61.5,30.11,WNW,288,2.0,5.0,66,0.00,,,0.00,Wunderground v.1.15,2013-05-18 15:50:00,
2013-05-18 11:55:00,74.0,62.8,30.11,SW,235,1.0,5.0,68,0.00,,,0.00,Wunderground v.1.15,2013-05-18 15:55:00,
2013-05-18 12:05:00,75.1,62.5,30.10,SSE,153,2.0,2.0,65,0.00,,,0.00,Wunderground v.1.15,2013-05-18 16:05:00,
2013-05-18 12:10:00,75.8,63.2,30.10,SW,228,2.0,5.0,65,0.00,,,0.00,Wunderground v.1.15,2013-05-18 16:10:00,
2013-05-18 12:15:00,76.9,63.8,30.10,NW,312,1.0,5.0,64,0.00,,,0.00,Wunderground v.1.15,2013-05-18 16:15:00,
2013-05-18 12:20:00,77.5,63.5,30.10,South,184,2.0,5.0,62,0.00,,,0.00,Wunderground v.1.15,2013-05-18 16:20:00,
2013-05-18 12:25:00,77.8,63.7,30.10,South,187,2.0,2.0,62,0.00,,,0.00,Wunderground v.1.15,2013-05-18 16:25:00,
2013-05-18 12:30:00,78.1,63.1,30.10,WSW,252,2.0,5.0,60,0.00,,,0.00,Wunderground v.1.15,2013-05-18 16:30:00,
2013-05-18 12:35:00,78.3,64.2,30.09,SW,222,3.0,5.0,62,0.00,,,0.00,Wunderground v.1.15,2013-05-18 16:35:00,
2013-05-18 12:40:00,78.3,62.3,30.09,South,169,3.0,5.0,58,0.00,,,0.00,Wunderground v.1.15,2013-05-18 16:40:00,
2013-05-18 12:50:00,79.6,59.3,30.09,SE,146,4.0,5.0,50,0.00,,,0.00,Wunderground v.1.15,2013-05-18 16:50:00,
2013-05-18 12:55:00,80.3,59.4,30.09,South,191,3.0,5.0,49,0.00,,,0.00,Wunderground v.1.15,2013-05-18 16:55:00,
2013-05-18 13:05:00,81.0,60.0,30.09,NE,42,3.0,3.0,49,0.00,,,0.00,Wunderground v.1.15,2013-05-18 17:05:00,
2013-05-18 13:10:00,81.4,60.4,30.09,North,10,2.0,5.0,49,0.00,,,0.00,Wunderground v.1.15,2013-05-18 17:10:00,
2013-05-18 13:15:00,81.7,61.2,30.09,WSW,238,3.0,5.0,50,0.00,,,0.00,Wunderground v.1.15,2013-05-18 17:15:00,
2013-05-18 13:20:00,81.8,60.2,30.09,South,177,5.0,5.0,48,0.00,,,0.00,Wunderground v.1.15,2013-05-18 17:20:00,
2013-05-18 13:30:00,81.8,60.8,30.09,SSW,194,4.0,5.0,49,0.00,,,0.00,Wunderground v.1.15,2013-05-18 17:30:00,
2013-05-18 13:35:00,81.4,61.0,30.09,SSW,197,5.0,5.0,50,0.00,,,0.00,Wunderground v.1.15,2013-05-18 17:35:00,
2013-05-18 13:40:00,80.8,61.0,30.08,SW,233,5.0,6.0,51,0.00,,,0.00,Wunderground v.1.15,2013-05-18 17:40:00,
2013-05-18 13:45:00,80.4,61.2,30.08,SW,221,5.0,5.0,52,0.00,,,0.00,Wunderground v.1.15,2013-05-18 17:45:00,
2013-05-18 13:50:00,80.4,60.6,30.08,South,187,4.0,5.0,51,0.00,,,0.00,Wunderground v.1.15,2013-05-18 17:50:00,
2013-05-18 13:55:00,80.3,61.6,30.08,South,191,3.0,5.0,53,0.00,,,0.00,Wunderground v.1.15,2013-05-18 17:55:00,
2013-05-18 14:05:00,80.5,60.7,30.08,SSW,203,4.0,5.0,51,0.00,,,0.00,Wunderground v.1.15,2013-05-18 18:05:00,
2013-05-18 14:10:00,80.8,61.0,30.08,SW,225,4.0,5.0,51,0.00,,,0.00,Wunderground v.1.15,2013-05-18 18:10:00,
2013-05-18 14:20:00,80.8,60.4,30.07,SW,221,3.0,5.0,50,0.00,,,0.00,Wunderground v.1.15,2013-05-18 18:20:00,
2013-05-18 14:25:00,80.9,61.1,30.07,SE,146,3.0,5.0,51,0.00,,,0.00,Wunderground v.1.15,2013-05-18 18:25:00,
2013-05-18 14:30:00,80.9,60.5,30.07,SSW,201,2.0,5.0,50,0.00,,,0.00,Wunderground v.1.15,2013-05-18 18:30:00,
2013-05-18 14:35:00,80.5,60.7,30.07,SW,218,4.0,6.0,51,0.00,,,0.00,Wunderground v.1.15,2013-05-18 18:35:00,
2013-05-18 14:45:00,80.5,61.3,30.07,South,181,2.0,5.0,52,0.00,,,0.00,Wunderground v.1.15,2013-05-18 18:45:00,
2013-05-18 14:50:00,80.5,61.8,30.07,SSW,196,2.0,5.0,53,0.00,,,0.00,Wunderground v.1.15,2013-05-18 18:50:00,
2013-05-18 15:05:00,80.3,61.6,30.07,SSW,210,4.0,5.0,53,0.00,,,0.00,Wunderground v.1.15,2013-05-18 19:05:00,
2013-05-18 15:10:00,80.4,61.7,30.07,SSW,196,4.0,5.0,53,0.00,,,0.00,Wunderground v.1.15,2013-05-18 19:10:00,
2013-05-18 15:15:00,80.7,62.0,30.07,South,180,4.0,5.0,53,0.00,,,0.00,Wunderground v.1.15,2013-05-18 19:15:00,
2013-05-18 15:20:00,81.5,63.8,30.06,SW,231,3.0,5.0,55,0.00,,,0.00,Wunderground v.1.15,2013-05-18 19:20:00,
2013-05-18 15:25:00,81.7,61.8,30.06,SE,136,2.0,2.0,51,0.00,,,0.00,Wunderground v.1.15,2013-05-18 19:25:00,
2013-05-18 15:30:00,81.7,64.0,30.06,SSE,151,1.0,3.0,55,0.00,,,0.00,Wunderground v.1.15,2013-05-18 19:30:00,
2013-05-18 15:35:00,81.6,62.8,30.06,SSW,210,2.0,5.0,53,0.00,,,0.00,Wunderground v.1.15,2013-05-18 19:35:00,
2013-05-18 15:45:00,81.5,63.3,30.06,SW,226,5.0,5.0,54,0.00,,,0.00,Wunderground v.1.15,2013-05-18 19:45:00,
2013-05-18 15:50:00,81.7,65.5,30.05,SW,236,4.0,5.0,58,0.00,,,0.00,Wunderground v.1.15,2013-05-18 19:50:00,
2013-05-18 15:55:00,81.6,63.9,30.05,South,187,4.0,6.0,55,0.00,,,0.00,Wunderground v.1.15,2013-05-18 19:55:00,
2013-05-18 16:05:00,80.6,64.9,30.05,SSE,162,6.0,6.0,59,0.00,,,0.00,Wunderground v.1.15,2013-05-18 20:05:00,
2013-05-18 16:10:00,80.3,63.7,30.05,SW,228,5.0,6.0,57,0.00,,,0.00,Wunderground v.1.15,2013-05-18 20:10:00,
2013-05-18 16:15:00,79.9,63.3,30.05,SSW,196,4.0,6.0,57,0.00,,,0.00,Wunderground v.1.15,2013-05-18 20:15:00,
2013-05-18 16:25:00,80.9,63.7,30.04,SSE,149,5.0,5.0,56,0.00,,,0.00,Wunderground v.1.15,2013-05-18 20:25:00,
2013-05-18 16:30:00,81.2,63.5,30.04,SSW,193,4.0,5.0,55,0.00,,,0.00,Wunderground v.1.15,2013-05-18 20:30:00,
2013-05-18 16:35:00,81.0,62.8,30.04,SSW,197,4.0,4.0,54,0.00,,,0.00,Wunderground v.1.15,2013-05-18 20:35:00,
2013-05-18 16:40:00,80.6,64.0,30.04,SSW,203,4.0,5.0,57,0.00,,,0.00,Wunderground v.1.15,2013-05-18 20:40:00,
2013-05-18 16:45:00,80.3,63.7,30.04,SW,214,4.0,5.0,57,0.00,,,0.00,Wunderground v.1.15,2013-05-18 20:45:00,
2013-05-18 16:50:00,80.0,62.9,30.04,SSE,161,4.0,5.0,56,0.00,,,0.00,Wunderground v.1.15,2013-05-18 20:50:00,
2013-05-18 17:05:00,79.9,61.8,30.04,SW,219,5.0,5.0,54,0.00,,,0.00,Wunderground v.1.15,2013-05-18 21:05:00,
2013-05-18 17:10:00,79.8,60.6,30.04,SSW,212,4.0,5.0,52,0.00,,,0.00,Wunderground v.1.15,2013-05-18 21:10:00,
2013-05-18 17:15:00,79.7,61.6,30.04,South,187,3.0,5.0,54,0.00,,,0.00,Wunderground v.1.15,2013-05-18 21:15:00,
2013-05-18 17:20:00,79.9,61.2,30.04,SSW,203,2.0,5.0,53,0.00,,,0.00,Wunderground v.1.15,2013-05-18 21:20:00,
2013-05-18 17:25:00,80.4,62.2,30.04,ESE,107,2.0,2.0,54,0.00,,,0.00,Wunderground v.1.15,2013-05-18 21:25:00,
2013-05-18 17:30:00,80.6,60.2,30.04,ESE,121,2.0,5.0,50,0.00,,,0.00,Wunderground v.1.15,2013-05-18 21:30:00,
2013-05-18 17:35:00,81.1,61.8,30.04,SSE,151,1.0,5.0,52,0.00,,,0.00,Wunderground v.1.15,2013-05-18 21:35:00,
2013-05-18 17:45:00,81.1,60.1,30.04,SSE,149,2.0,2.0,49,0.00,,,0.00,Wunderground v.1.15,2013-05-18 21:45:00,
2013-05-18 17:50:00,80.9,60.5,30.04,SSW,193,2.0,5.0,50,0.00,,,0.00,Wunderground v.1.15,2013-05-18 21:50:00,
2013-05-18 17:55:00,81.0,61.2,30.04,SSE,152,1.0,1.0,51,0.00,,,0.00,Wunderground v.1.15,2013-05-18 21:55:00,
2013-05-18 18:05:00,81.7,61.8,30.04,ESE,106,0.0,5.0,51,0.00,,,0.00,Wunderground v.1.15,2013-05-18 22:05:00,
2013-05-18 18:10:00,81.5,61.1,30.04,ENE,68,1.0,5.0,50,0.00,,,0.00,Wunderground v.1.15,2013-05-18 22:10:00,
2013-05-18 18:20:00,81.1,61.8,30.04,SE,138,1.0,5.0,52,0.00,,,0.00,Wunderground v.1.15,2013-05-18 22:20:00,
2013-05-18 18:25:00,81.1,61.3,30.04,SSE,160,1.0,5.0,51,0.00,,,0.00,Wunderground v.1.15,2013-05-18 22:25:00,
2013-05-18 18:30:00,81.0,61.7,30.03,SE,139,1.0,5.0,52,0.00,,,0.00,Wunderground v.1.15,2013-05-18 22:30:00,
2013-05-18 18:35:00,80.5,62.3,30.03,South,191,1.0,5.0,54,0.00,,,0.00,Wunderground v.1.15,2013-05-18 22:35:00,
2013-05-18 18:40:00,80.0,62.9,30.03,SSE,158,2.0,5.0,56,0.00,,,0.00,Wunderground v.1.15,2013-05-18 22:40:00,
2013-05-18 18:45:00,79.6,62.5,30.03,South,179,2.0,5.0,56,0.00,,,0.00,Wunderground v.1.15,2013-05-18 22:45:00,
2013-05-18 18:50:00,79.1,62.6,30.03,SSE,160,2.0,5.0,57,0.00,,,0.00,Wunderground v.1.15,2013-05-18 22:50:00,
2013-05-18 19:05:00,78.3,63.7,30.04,SSE,152,1.0,1.0,61,0.00,,,0.00,Wunderground v.1.15,2013-05-18 23:05:00,
2013-05-18 19:10:00,78.2,64.6,30.04,SSE,153,0.0,5.0,63,0.00,,,0.00,Wunderground v.1.15,2013-05-18 23:10:00,
2013-05-18 19:15:00,78.0,65.7,30.04,SSE,152,0.0,5.0,66,0.00,,,0.00,Wunderground v.1.15,2013-05-18 23:15:00,
2013-05-18 19:20:00,77.4,66.0,30.04,SSE,153,0.0,5.0,68,0.00,,,0.00,Wunderground v.1.15,2013-05-18 23:20:00,
2013-05-18 19:25:00,76.5,65.6,30.04,SSE,149,0.0,5.0,69,0.00,,,0.00,Wunderground v.1.15,2013-05-18 23:25:00,
2013-05-18 19:35:00,75.3,65.6,30.04,SE,145,1.0,1.0,72,0.00,,,0.00,Wunderground v.1.15,2013-05-18 23:35:00,
2013-05-18 19:40:00,75.0,66.1,30.04,SE,145,0.0,5.0,74,0.00,,,0.00,Wunderground v.1.15,2013-05-18 23:40:00,
2013-05-18 19:45:00,74.6,65.8,30.04,SE,145,0.0,5.0,74,0.00,,,0.00,Wunderground v.1.15,2013-05-18 23:45:00,
2013-05-18 19:50:00,74.1,66.0,30.04,SE,141,0.0,5.0,76,0.00,,,0.00,Wunderground v.1.15,2013-05-18 23:50:00,
2013-05-18 19:55:00,73.6,66.3,30.04,SE,141,0.0,5.0,78,0.00,,,0.00,Wunderground v.1.15,2013-05-18 23:55:00,
2013-05-18 20:05:00,72.8,65.5,30.04,SE,141,0.0,5.0,78,0.00,,,0.00,Wunderground v.1.15,2013-05-19 00:05:00,
2013-05-18 20:15:00,71.9,65.0,30.04,SE,141,0.0,5.0,79,0.00,,,0.00,Wunderground v.1.15,2013-05-19 00:15:00,
2013-05-18 20:20:00,71.5,65.0,30.04,SE,141,0.0,5.0,80,0.00,,,0.00,Wunderground v.1.15,2013-05-19 00:20:00,
2013-05-18 20:25:00,71.0,64.5,30.04,SE,141,0.0,5.0,80,0.00,,,0.00,Wunderground v.1.15,2013-05-19 00:25:00,
2013-05-18 20:30:00,70.6,64.1,30.04,SE,141,0.0,5.0,80,0.00,,,0.00,Wunderground v.1.15,2013-05-19 00:30:00,
2013-05-18 20:35:00,70.3,64.2,30.04,SE,141,0.0,5.0,81,0.00,,,0.00,Wunderground v.1.15,2013-05-19 00:35:00,
2013-05-18 20:40:00,70.1,64.0,30.04,SE,141,0.0,5.0,81,0.00,,,0.00,Wunderground v.1.15,2013-05-19 00:40:00,
2013-05-18 20:45:00,69.9,63.8,30.04,SE,141,0.0,5.0,81,0.00,,,0.00,Wunderground v.1.15,2013-05-19 00:45:00,
2013-05-18 20:55:00,69.3,63.9,30.04,SE,141,0.0,5.0,83,0.00,,,0.00,Wunderground v.1.15,2013-05-19 00:55:00,
2013-05-18 21:05:00,68.7,63.3,30.04,SE,141,0.0,5.0,83,0.00,,,0.00,Wunderground v.1.15,2013-05-19 01:05:00,
2013-05-18 21:10:00,68.5,63.1,30.04,SE,141,0.0,5.0,83,0.00,,,0.00,Wunderground v.1.15,2013-05-19 01:10:00,
2013-05-18 21:15:00,68.4,63.0,30.05,SE,141,0.0,5.0,83,0.00,,,0.00,Wunderground v.1.15,2013-05-19 01:15:00,
2013-05-18 21:20:00,68.3,63.3,30.05,SE,141,0.0,5.0,84,0.00,,,0.00,Wunderground v.1.15,2013-05-19 01:20:00,
2013-05-18 21:25:00,68.1,63.1,30.05,SE,141,0.0,5.0,84,0.00,,,0.00,Wunderground v.1.15,2013-05-19 01:25:00,
2013-05-18 21:35:00,67.6,62.9,30.06,SE,141,0.0,5.0,85,0.00,,,0.00,Wunderground v.1.15,2013-05-19 01:35:00,
2013-05-18 21:40:00,67.5,63.2,30.06,SE,141,0.0,5.0,86,0.00,,,0.00,Wunderground v.1.15,2013-05-19 01:40:00,
2013-05-18 21:45:00,67.4,63.1,30.06,SE,141,0.0,5.0,86,0.00,,,0.00,Wunderground v.1.15,2013-05-19 01:45:00,
2013-05-18 21:50:00,67.4,63.1,30.06,SE,141,0.0,5.0,86,0.00,,,0.00,Wunderground v.1.15,2013-05-19 01:50:00,
2013-05-18 21:55:00,67.3,63.0,30.06,SE,141,0.0,5.0,86,0.00,,,0.00,Wunderground v.1.15,2013-05-19 01:55:00,
2013-05-18 22:05:00,67.3,63.0,30.06,SE,141,0.0,5.0,86,0.00,,,0.00,Wunderground v.1.15,2013-05-19 02:05:00,
2013-05-18 22:15:00,67.2,62.9,30.06,SE,141,0.0,5.0,86,0.00,,,0.00,Wunderground v.1.15,2013-05-19 02:15:00,
2013-05-18 22:25:00,66.8,62.5,30.06,SE,141,0.0,5.0,86,0.00,,,0.00,Wunderground v.1.15,2013-05-19 02:25:00,
2013-05-18 22:30:00,66.6,62.6,30.06,SE,141,0.0,5.0,87,0.00,,,0.00,Wunderground v.1.15,2013-05-19 02:30:00,
2013-05-18 22:35:00,66.4,62.4,30.06,SE,141,0.0,5.0,87,0.00,,,0.00,Wunderground v.1.15,2013-05-19 02:35:00,
2013-05-18 22:40:00,66.0,62.0,30.06,SE,141,0.0,5.0,87,0.00,,,0.00,Wunderground v.1.15,2013-05-19 02:40:00,
2013-05-18 22:45:00,65.6,61.9,30.06,SE,141,0.0,5.0,88,0.00,,,0.00,Wunderground v.1.15,2013-05-19 02:45:00,
2013-05-18 22:50:00,65.4,61.8,30.05,SE,141,0.0,5.0,88,0.00,,,0.00,Wunderground v.1.15,2013-05-19 02:50:00,
2013-05-18 23:05:00,64.4,61.4,30.05,SE,141,0.0,5.0,90,0.00,,,0.00,Wunderground v.1.15,2013-05-19 03:05:00,
2013-05-18 23:10:00,64.1,61.1,30.05,SE,141,0.0,5.0,90,0.00,,,0.00,Wunderground v.1.15,2013-05-19 03:10:00,
2013-05-18 23:15:00,63.9,61.2,30.05,SE,141,0.0,5.0,91,0.00,,,0.00,Wunderground v.1.15,2013-05-19 03:15:00,
2013-05-18 23:20:00,63.7,61.0,30.05,SE,141,0.0,5.0,91,0.00,,,0.00,Wunderground v.1.15,2013-05-19 03:20:00,
2013-05-18 23:25:00,63.5,60.8,30.05,SE,141,0.0,5.0,91,0.00,,,0.00,Wunderground v.1.15,2013-05-19 03:25:00,
2013-05-18 23:30:00,63.3,60.6,30.04,SE,141,0.0,5.0,91,0.00,,,0.00,Wunderground v.1.15,2013-05-19 03:30:00,
2013-05-18 23:35:00,63.1,60.4,30.04,SE,141,0.0,5.0,91,0.00,,,0.00,Wunderground v.1.15,2013-05-19 03:35:00,
2013-05-18 23:45:00,62.8,60.4,30.05,SE,141,0.0,5.0,92,0.00,,,0.00,Wunderground v.1.15,2013-05-19 03:45:00,
2013-05-18 23:50:00,62.6,60.2,30.05,SE,141,0.0,5.0,92,0.00,,,0.00,Wunderground v.1.15,2013-05-19 03:50:00,
2013-05-18 23:55:00,62.5,60.1,30.05,SE,141,0.0,5.0,92,0.00,,,0.00,Wunderground v.1.15,2013-05-19 03:55:00,